Terminal Aerodrome Forecast
Issued by NWS Jackson, MS

Home | Current Version | Previous Version | Text Only | Print | Product List | Glossary On
Versions: 1 2 3 4 5 6 7 8 9 10 11 12 13
000
FTUS44 KJAN 311122
TAFMEI
TAF
KMEI 311122Z 3112/0112 VRB05KT P6SM FEW030 SCT050
     FM311900 19006KT P6SM VCTS SCT040 BKN060CB
     FM010200 18003KT P6SM VCSH FEW030 SCT050 BKN150
     FM011000 18003KT 5SM BR FEW050 SCT250=

USA.gov is the U.S. government's official web portal to all federal, state and local government web resources and services.